createdAt,value
2018-05-25T00:00:39.761Z,0.00
2018-05-25T00:01:39.745Z,0.00
2018-05-25T00:02:39.732Z,0.00
2018-05-25T00:03:39.716Z,0.00
2018-05-25T00:04:39.702Z,0.00
2018-05-25T00:05:39.687Z,0.00
2018-05-25T00:06:39.675Z,0.00
2018-05-25T00:07:39.662Z,0.00
2018-05-25T00:08:39.649Z,0.00
2018-05-25T00:09:39.634Z,0.00
2018-05-25T00:10:39.621Z,0.00
2018-05-25T00:11:39.604Z,0.00
2018-05-25T00:12:39.592Z,0.00
2018-05-25T00:13:39.577Z,0.00
2018-05-25T00:14:39.561Z,0.00
2018-05-25T00:15:39.548Z,0.00
2018-05-25T00:16:39.535Z,0.00
2018-05-25T00:17:39.526Z,0.00
2018-05-25T00:18:39.507Z,0.00
2018-05-25T00:19:39.494Z,0.00
2018-05-25T00:20:39.480Z,0.00
2018-05-25T00:21:39.469Z,0.00
2018-05-25T00:22:39.451Z,0.00
2018-05-25T00:23:39.436Z,0.00
2018-05-25T00:24:39.477Z,0.00
2018-05-25T00:25:39.407Z,0.00
2018-05-25T00:26:39.400Z,0.00
2018-05-25T00:27:39.383Z,0.00
2018-05-25T00:28:39.371Z,0.00
2018-05-25T00:29:39.351Z,0.00
2018-05-25T00:30:39.338Z,0.00
2018-05-25T00:31:39.324Z,0.00
2018-05-25T00:32:39.315Z,0.00
2018-05-25T00:33:39.295Z,0.00
2018-05-25T00:34:39.281Z,0.00
2018-05-25T00:35:39.268Z,0.00
2018-05-25T00:36:39.258Z,0.00
2018-05-25T00:37:39.284Z,0.00
2018-05-25T00:38:39.225Z,0.00
2018-05-25T00:39:39.214Z,0.00
2018-05-25T00:40:39.198Z,0.00
2018-05-25T00:41:39.182Z,0.00
2018-05-25T00:42:39.175Z,0.00
2018-05-25T00:43:39.155Z,0.00
2018-05-25T00:44:39.142Z,0.00
2018-05-25T00:45:39.127Z,0.00
2018-05-25T00:46:39.112Z,0.00
2018-05-25T00:47:39.100Z,0.00
2018-05-25T00:48:39.083Z,0.00
2018-05-25T00:49:39.071Z,0.00
2018-05-25T00:50:39.057Z,0.00
2018-05-25T00:51:39.042Z,0.00
2018-05-25T00:52:39.028Z,0.00
2018-05-25T00:53:39.013Z,0.00
2018-05-25T00:54:38.999Z,0.00
2018-05-25T00:55:38.987Z,0.00
2018-05-25T00:56:38.973Z,0.00
2018-05-25T00:57:38.958Z,0.00
2018-05-25T00:58:38.943Z,0.00
2018-05-25T00:59:38.930Z,0.00
2018-05-25T01:00:38.917Z,0.00
2018-05-25T01:01:38.901Z,0.00
2018-05-25T01:02:38.886Z,0.00
2018-05-25T01:03:38.880Z,0.00
2018-05-25T01:04:38.864Z,0.00
2018-05-25T01:05:38.843Z,0.00
2018-05-25T01:06:38.830Z,0.00
2018-05-25T01:07:38.815Z,0.00
2018-05-25T01:08:38.806Z,0.00
2018-05-25T01:09:38.787Z,0.00
2018-05-25T01:10:38.777Z,0.00
2018-05-25T01:11:38.762Z,0.00
2018-05-25T01:12:38.746Z,0.00
2018-05-25T01:13:38.731Z,0.00
2018-05-25T01:14:38.717Z,0.00
2018-05-25T01:15:38.712Z,0.00
2018-05-25T01:16:38.688Z,0.00
2018-05-25T01:17:38.673Z,0.00
2018-05-25T01:18:38.662Z,0.00
2018-05-25T01:19:38.652Z,0.00
2018-05-25T01:20:38.634Z,0.00
2018-05-25T01:21:38.618Z,0.00
2018-05-25T01:22:38.606Z,0.00
2018-05-25T01:23:38.590Z,0.00
2018-05-25T01:24:38.577Z,0.00
2018-05-25T01:25:38.562Z,0.00
2018-05-25T01:26:38.546Z,0.00
2018-05-25T01:27:38.535Z,0.00
2018-05-25T01:28:38.518Z,0.00
2018-05-25T01:29:38.506Z,0.00
2018-05-25T01:30:38.493Z,0.00
2018-05-25T01:31:38.475Z,0.00
2018-05-25T01:32:38.461Z,0.00
2018-05-25T01:33:38.446Z,0.00
2018-05-25T01:34:38.432Z,0.00
2018-05-25T01:35:38.418Z,0.00
2018-05-25T01:36:38.402Z,0.00
2018-05-25T01:37:38.390Z,0.00
2018-05-25T01:38:38.377Z,0.00
2018-05-25T01:39:38.360Z,0.00
2018-05-25T01:40:38.344Z,0.00
2018-05-25T01:41:38.334Z,0.00
2018-05-25T01:42:38.315Z,0.00
2018-05-25T01:43:38.302Z,0.00
2018-05-25T01:44:38.286Z,0.00
2018-05-25T01:45:38.275Z,0.00
2018-05-25T01:46:38.261Z,0.00
2018-05-25T01:47:38.249Z,0.00
2018-05-25T01:48:38.231Z,0.00
2018-05-25T01:49:38.214Z,0.00
2018-05-25T01:50:38.202Z,0.00
2018-05-25T01:51:38.189Z,0.00
2018-05-25T01:52:38.174Z,0.00
2018-05-25T01:53:38.157Z,0.00
2018-05-25T01:54:38.196Z,0.00
2018-05-25T01:55:38.129Z,0.00
2018-05-25T01:56:38.115Z,0.00
2018-05-25T01:57:38.101Z,0.00
2018-05-25T01:58:38.088Z,0.00
2018-05-25T01:59:38.071Z,0.00
2018-05-25T02:00:38.059Z,0.00
2018-05-25T02:01:38.043Z,0.00
2018-05-25T02:02:38.030Z,0.00
2018-05-25T02:03:38.014Z,0.00
2018-05-25T02:04:38.000Z,0.00
2018-05-25T02:05:37.988Z,0.00
2018-05-25T02:06:37.968Z,0.00
2018-05-25T02:07:37.958Z,0.00
2018-05-25T02:08:37.941Z,0.00
2018-05-25T02:09:37.925Z,0.00
2018-05-25T02:10:37.911Z,0.00
2018-05-25T02:11:37.899Z,0.00
2018-05-25T02:12:37.890Z,0.00
2018-05-25T02:13:37.868Z,0.00
2018-05-25T02:14:37.856Z,0.00
2018-05-25T02:15:37.839Z,0.00
2018-05-25T02:16:37.825Z,4.00
2018-05-25T02:17:37.810Z,4.00
2018-05-25T02:18:37.797Z,0.00
2018-05-25T02:19:37.782Z,0.00
2018-05-25T02:20:37.772Z,0.00
2018-05-25T02:21:37.753Z,4.00
2018-05-25T02:22:37.740Z,4.00
2018-05-25T02:23:37.725Z,0.00
2018-05-25T02:24:37.709Z,4.00
2018-05-25T02:25:37.694Z,4.00
2018-05-25T02:26:37.678Z,8.00
2018-05-25T02:27:37.665Z,4.00
2018-05-25T02:28:37.651Z,8.00
2018-05-25T02:29:37.634Z,4.00
2018-05-25T02:30:37.623Z,8.00
2018-05-25T02:31:37.608Z,8.00
2018-05-25T02:32:37.592Z,8.00
2018-05-25T02:33:37.578Z,8.00
2018-05-25T02:34:37.563Z,12.00
2018-05-25T02:35:37.554Z,16.00
2018-05-25T02:36:37.533Z,16.00
2018-05-25T02:37:37.522Z,16.00
2018-05-25T02:38:37.580Z,20.00
2018-05-25T02:39:37.495Z,24.00
2018-05-25T02:40:37.477Z,24.00
2018-05-25T02:41:37.469Z,28.00
2018-05-25T02:42:37.447Z,32.00
2018-05-25T02:43:37.431Z,32.00
2018-05-25T02:44:37.421Z,36.00
2018-05-25T02:45:37.401Z,40.00
2018-05-25T02:46:37.388Z,44.00
2018-05-25T02:47:37.373Z,48.00
2018-05-25T02:48:37.356Z,56.00
2018-05-25T02:49:37.342Z,64.00
2018-05-25T02:50:37.327Z,68.00
2018-05-25T02:51:37.314Z,76.00
2018-05-25T02:52:37.298Z,80.00
2018-05-25T02:53:37.283Z,84.00
2018-05-25T02:54:37.268Z,96.00
2018-05-25T02:55:37.259Z,104.00
2018-05-25T02:56:37.246Z,112.00
2018-05-25T02:57:37.223Z,120.00
2018-05-25T02:58:37.209Z,128.00
2018-05-25T02:59:37.195Z,136.00
2018-05-25T03:00:37.180Z,144.00
2018-05-25T03:01:37.165Z,152.00
2018-05-25T03:02:37.154Z,160.00
2018-05-25T03:03:37.136Z,176.00
2018-05-25T03:04:37.120Z,184.00
2018-05-25T03:05:37.104Z,196.00
2018-05-25T03:06:37.090Z,208.00
2018-05-25T03:07:37.077Z,220.00
2018-05-25T03:08:37.059Z,232.00
2018-05-25T03:09:37.046Z,244.00
2018-05-25T03:10:37.032Z,256.00
2018-05-25T03:11:37.017Z,268.00
2018-05-25T03:12:37.004Z,280.00
2018-05-25T03:13:36.985Z,296.00
2018-05-25T03:14:36.978Z,308.00
2018-05-25T03:15:36.955Z,320.00
2018-05-25T03:16:36.945Z,336.00
2018-05-25T03:17:36.930Z,348.00
2018-05-25T03:18:36.911Z,364.00
2018-05-25T03:19:36.900Z,376.00
2018-05-25T03:20:36.881Z,392.00
2018-05-25T03:21:36.868Z,404.00
2018-05-25T03:22:36.850Z,420.00
2018-05-25T03:23:36.836Z,432.00
2018-05-25T03:24:36.820Z,448.00
2018-05-25T03:25:36.806Z,460.00
2018-05-25T03:26:36.791Z,476.00
2018-05-25T03:27:36.779Z,488.00
2018-05-25T03:28:36.763Z,504.00
2018-05-25T03:29:36.746Z,524.00
2018-05-25T03:30:36.738Z,536.00
2018-05-25T03:31:36.720Z,552.00
2018-05-25T03:32:36.701Z,564.00
2018-05-25T03:33:36.684Z,580.00
2018-05-25T03:34:36.671Z,596.00
2018-05-25T03:35:36.656Z,612.00
2018-05-25T03:36:36.647Z,620.00
2018-05-25T03:37:36.625Z,636.00
2018-05-25T03:38:36.611Z,652.00
2018-05-25T03:39:36.592Z,668.00
2018-05-25T03:40:36.585Z,684.00
2018-05-25T03:41:36.566Z,696.00
2018-05-25T03:42:36.549Z,712.00
2018-05-25T03:43:36.535Z,728.00
2018-05-25T03:44:36.521Z,736.00
2018-05-25T03:45:36.503Z,752.00
2018-05-25T03:46:36.489Z,764.00
2018-05-25T03:47:36.474Z,776.00
2018-05-25T03:48:36.461Z,788.00
2018-05-25T03:49:36.445Z,800.00
2018-05-25T03:50:36.429Z,812.00
2018-05-25T03:51:36.412Z,824.00
2018-05-25T03:52:36.400Z,836.00
2018-05-25T03:53:36.388Z,848.00
2018-05-25T03:54:36.370Z,860.00
2018-05-25T03:55:36.359Z,872.00
2018-05-25T03:56:36.343Z,884.00
2018-05-25T03:57:36.328Z,896.00
2018-05-25T03:58:36.339Z,908.00
2018-05-25T03:59:36.296Z,920.00
2018-05-25T04:00:36.279Z,932.00
2018-05-25T04:01:36.303Z,944.00
2018-05-25T04:02:36.248Z,956.00
2018-05-25T04:03:36.240Z,968.00
2018-05-25T04:04:36.218Z,976.00
2018-05-25T04:05:36.206Z,988.00
2018-05-25T04:06:36.211Z,1000.00
2018-05-25T04:07:36.177Z,1012.00
2018-05-25T04:08:36.158Z,1020.00
2018-05-25T04:09:36.151Z,1032.00
2018-05-25T04:10:36.133Z,1044.00
2018-05-25T04:11:36.113Z,1056.00
2018-05-25T04:12:36.100Z,1068.00
2018-05-25T04:13:36.083Z,1080.00
2018-05-25T04:14:36.067Z,1088.00
2018-05-25T04:15:36.056Z,1100.00
2018-05-25T04:16:36.037Z,1108.00
2018-05-25T04:17:36.021Z,1124.00
2018-05-25T04:18:36.010Z,1132.00
2018-05-25T04:19:35.989Z,1144.00
2018-05-25T04:20:35.980Z,1152.00
2018-05-25T04:21:35.962Z,1160.00
2018-05-25T04:22:35.945Z,1176.00
2018-05-25T04:23:35.929Z,1180.00
2018-05-25T04:24:35.916Z,1192.00
2018-05-25T04:25:35.902Z,1196.00
2018-05-25T04:26:35.887Z,1204.00
2018-05-25T04:27:35.870Z,1212.00
2018-05-25T04:28:35.857Z,1220.00
2018-05-25T04:29:35.842Z,1232.00
2018-05-25T04:30:35.825Z,1244.00
2018-05-25T04:31:35.811Z,1248.00
2018-05-25T04:32:35.796Z,1260.00
2018-05-25T04:33:35.801Z,1268.00
2018-05-25T04:34:35.763Z,1276.00
2018-05-25T04:35:35.782Z,1288.00
2018-05-25T04:36:35.735Z,1296.00
2018-05-25T04:37:35.722Z,1312.00
2018-05-25T04:38:35.707Z,1320.00
2018-05-25T04:39:35.691Z,1328.00
2018-05-25T04:40:35.674Z,1340.00
2018-05-25T04:41:35.658Z,1348.00
2018-05-25T04:42:35.644Z,1360.00
2018-05-25T04:43:35.630Z,1368.00
2018-05-25T04:44:35.618Z,1376.00
2018-05-25T04:45:35.598Z,1384.00
2018-05-25T04:46:35.592Z,1388.00
2018-05-25T04:47:35.569Z,1392.00
2018-05-25T04:48:35.555Z,1404.00
2018-05-25T04:49:35.542Z,1408.00
2018-05-25T04:50:35.524Z,1416.00
2018-05-25T04:51:35.507Z,1432.00
2018-05-25T04:52:35.496Z,1436.00
2018-05-25T04:53:35.487Z,1448.00
2018-05-25T04:54:35.486Z,1460.00
2018-05-25T04:55:35.455Z,1468.00
2018-05-25T04:56:35.437Z,1480.00
2018-05-25T04:57:35.421Z,1488.00
2018-05-25T04:58:35.405Z,1500.00
2018-05-25T04:59:35.390Z,1508.00
2018-05-25T05:00:35.382Z,1516.00
2018-05-25T05:01:35.362Z,1520.00
2018-05-25T05:02:35.343Z,1532.00
2018-05-25T05:03:35.327Z,1544.00
2018-05-25T05:04:35.321Z,1552.00
2018-05-25T05:05:35.302Z,1560.00
2018-05-25T05:06:35.285Z,1572.00
2018-05-25T05:07:35.276Z,1576.00
2018-05-25T05:08:35.255Z,1592.00
2018-05-25T05:09:35.239Z,1600.00
2018-05-25T05:10:35.290Z,1592.00
2018-05-25T05:11:35.217Z,1620.00
2018-05-25T05:12:35.195Z,1632.00
2018-05-25T05:13:35.182Z,1640.00
2018-05-25T05:14:35.166Z,1652.00
2018-05-25T05:15:35.151Z,1668.00
2018-05-25T05:16:35.139Z,1676.00
2018-05-25T05:17:35.122Z,1684.00
2018-05-25T05:18:35.105Z,1696.00
2018-05-25T05:19:35.092Z,1704.00
2018-05-25T05:20:35.077Z,1716.00
2018-05-25T05:21:35.062Z,1724.00
2018-05-25T05:22:35.047Z,1732.00
2018-05-25T05:23:35.033Z,1736.00
2018-05-25T05:24:35.021Z,1748.00
2018-05-25T05:25:35.003Z,1760.00
2018-05-25T05:26:34.989Z,1772.00
2018-05-25T05:27:34.974Z,1784.00
2018-05-25T05:28:34.958Z,1800.00
2018-05-25T05:29:34.943Z,1812.00
2018-05-25T05:30:34.930Z,1828.00
2018-05-25T05:31:34.914Z,1844.00
2018-05-25T05:32:34.901Z,1856.00
2018-05-25T05:33:34.887Z,1868.00
2018-05-25T05:34:34.872Z,1880.00
2018-05-25T05:35:34.854Z,1892.00
2018-05-25T05:36:34.839Z,1904.00
2018-05-25T05:37:34.825Z,1916.00
2018-05-25T05:38:34.813Z,1932.00
2018-05-25T05:39:34.797Z,1944.00
2018-05-25T05:40:34.786Z,1960.00
2018-05-25T05:41:34.767Z,1976.00
2018-05-25T05:42:34.755Z,1988.00
2018-05-25T05:43:34.741Z,2004.00
2018-05-25T05:44:34.724Z,2016.00
2018-05-25T05:45:34.707Z,2032.00
2018-05-25T05:46:34.693Z,2048.00
2018-05-25T05:47:34.680Z,2056.00
2018-05-25T05:48:34.669Z,2072.00
2018-05-25T05:49:34.649Z,2072.00
2018-05-25T05:50:34.635Z,2088.00
2018-05-25T05:51:34.625Z,2096.00
2018-05-25T05:52:34.607Z,2104.00
2018-05-25T05:53:34.592Z,2116.00
2018-05-25T05:54:34.575Z,2132.00
2018-05-25T05:55:34.563Z,2140.00
2018-05-25T05:56:34.551Z,2152.00
2018-05-25T05:57:34.533Z,2164.00
2018-05-25T05:58:34.522Z,2176.00
2018-05-25T05:59:34.506Z,2192.00
2018-05-25T06:00:34.494Z,2208.00
2018-05-25T06:01:34.477Z,2224.00
2018-05-25T06:02:34.469Z,2244.00
2018-05-25T06:03:34.448Z,2256.00
2018-05-25T06:04:34.440Z,2272.00
2018-05-25T06:05:34.423Z,2284.00
2018-05-25T06:06:34.405Z,2300.00
2018-05-25T06:07:34.399Z,2316.00
2018-05-25T06:08:34.377Z,2324.00
2018-05-25T06:09:34.361Z,2336.00
2018-05-25T06:10:34.350Z,2344.00
2018-05-25T06:11:34.338Z,2352.00
2018-05-25T06:12:34.323Z,2368.00
2018-05-25T06:13:34.306Z,2380.00
2018-05-25T06:14:34.293Z,2392.00
2018-05-25T06:15:34.277Z,2400.00
2018-05-25T06:16:34.262Z,2424.00
2018-05-25T06:17:34.250Z,2444.00
2018-05-25T06:18:34.235Z,2460.00
2018-05-25T06:19:34.226Z,2472.00
2018-05-25T06:20:34.208Z,2492.00
2018-05-25T06:21:34.192Z,2512.00
2018-05-25T06:22:34.182Z,2532.00
2018-05-25T06:23:34.167Z,2552.00
2018-05-25T06:24:34.152Z,2564.00
2018-05-25T06:25:34.137Z,2584.00
2018-05-25T06:26:34.124Z,2600.00
2018-05-25T06:27:34.111Z,2616.00
2018-05-25T06:28:34.101Z,2632.00
2018-05-25T06:29:34.082Z,2648.00
2018-05-25T06:30:34.069Z,2660.00
2018-05-25T06:31:34.056Z,2672.00
2018-05-25T06:32:34.043Z,2688.00
2018-05-25T06:33:34.037Z,2704.00
2018-05-25T06:34:34.022Z,2716.00
2018-05-25T06:35:34.003Z,2732.00
2018-05-25T06:36:33.991Z,2740.00
2018-05-25T06:37:33.977Z,2752.00
2018-05-25T06:38:33.961Z,2772.00
2018-05-25T06:39:33.948Z,2788.00
2018-05-25T06:40:33.941Z,2808.00
2018-05-25T06:41:33.924Z,2828.00
2018-05-25T06:42:33.907Z,2844.00
2018-05-25T06:43:33.897Z,2864.00
2018-05-25T06:44:33.881Z,2884.00
2018-05-25T06:45:33.868Z,2896.00
2018-05-25T06:46:33.860Z,2912.00
2018-05-25T06:47:33.842Z,2936.00
2018-05-25T06:48:33.827Z,2964.00
2018-05-25T06:49:33.814Z,2984.00
2018-05-25T06:50:33.804Z,3000.00
2018-05-25T06:51:33.788Z,3024.00
2018-05-25T06:52:33.776Z,3044.00
2018-05-25T06:53:33.766Z,3072.00
2018-05-25T06:54:33.751Z,3096.00
2018-05-25T06:55:33.741Z,3120.00
2018-05-25T06:56:33.722Z,3144.00
2018-05-25T06:57:33.709Z,3172.00
2018-05-25T06:58:33.697Z,3200.00
2018-05-25T06:59:33.686Z,3232.00
2018-05-25T07:00:33.673Z,3260.00
2018-05-25T07:01:33.663Z,3296.00
2018-05-25T07:02:33.646Z,3324.00
2018-05-25T07:03:33.635Z,3356.00
2018-05-25T07:04:33.621Z,3376.00
2018-05-25T07:05:33.614Z,3404.00
2018-05-25T07:06:33.598Z,3428.00
2018-05-25T07:07:33.581Z,3452.00
2018-05-25T07:08:33.584Z,3476.00
2018-05-25T07:09:33.558Z,3504.00
2018-05-25T07:10:33.544Z,3532.00
2018-05-25T07:11:33.538Z,3556.00
2018-05-25T07:12:33.524Z,3588.00
2018-05-25T07:13:33.507Z,3616.00
2018-05-25T07:14:33.499Z,3656.00
2018-05-25T07:15:33.488Z,3700.00
2018-05-25T07:16:33.474Z,3744.00
2018-05-25T07:17:33.463Z,3772.00
2018-05-25T07:18:33.449Z,3804.00
2018-05-25T07:19:33.437Z,3844.00
2018-05-25T07:20:33.428Z,3872.00
2018-05-25T07:21:33.418Z,3892.00
2018-05-25T07:22:33.401Z,3916.00
2018-05-25T07:23:33.390Z,3948.00
2018-05-25T07:24:33.379Z,3980.00
2018-05-25T07:25:33.365Z,4024.00
2018-05-25T07:26:33.356Z,4060.00
2018-05-25T07:27:33.343Z,4100.00
2018-05-25T07:28:33.332Z,4136.00
2018-05-25T07:29:33.318Z,4168.00
2018-05-25T07:30:33.310Z,4208.00
2018-05-25T07:31:33.298Z,4240.00
2018-05-25T07:32:33.287Z,4288.00
2018-05-25T07:33:33.275Z,4328.00
2018-05-25T07:34:33.263Z,4376.00
2018-05-25T07:35:33.255Z,4404.00
2018-05-25T07:36:33.243Z,4444.00
2018-05-25T07:37:33.231Z,4480.00
2018-05-25T07:38:33.221Z,4528.00
2018-05-25T07:39:33.209Z,4588.00
2018-05-25T07:40:33.198Z,4640.00
2018-05-25T07:41:33.187Z,4684.00
2018-05-25T07:42:33.178Z,4740.00
2018-05-25T07:43:33.166Z,4800.00
2018-05-25T07:44:33.154Z,4860.00
2018-05-25T07:45:33.143Z,4924.00
2018-05-25T07:46:33.133Z,4984.00
2018-05-25T07:47:33.127Z,5044.00
2018-05-25T07:48:33.112Z,5100.00
2018-05-25T07:49:33.102Z,5172.00
2018-05-25T07:50:33.091Z,5252.00
2018-05-25T07:51:33.082Z,5332.00
2018-05-25T07:52:33.072Z,5420.00
2018-05-25T07:53:33.061Z,5508.00
2018-05-25T07:54:33.054Z,5628.00
2018-05-25T07:55:33.042Z,5760.00
2018-05-25T07:56:33.038Z,5928.00
2018-05-25T07:57:33.021Z,6284.00
2018-05-25T07:58:33.011Z,17120.00
2018-05-25T07:59:33.003Z,38496.00
2018-05-25T08:00:32.993Z,62912.00
2018-05-25T08:01:32.984Z,74816.00
2018-05-25T08:02:32.981Z,71136.00
2018-05-25T08:03:32.967Z,73504.00
2018-05-25T08:04:32.957Z,79168.00
2018-05-25T08:05:32.953Z,75072.00
2018-05-25T08:06:32.947Z,72320.00
2018-05-25T08:07:32.935Z,72192.00
2018-05-25T08:08:32.930Z,73152.00
2018-05-25T08:09:32.920Z,76800.00
2018-05-25T08:10:32.915Z,79456.00
2018-05-25T08:11:32.921Z,77472.00
2018-05-25T08:12:32.904Z,75680.00
2018-05-25T08:13:32.898Z,75552.00
2018-05-25T08:14:32.892Z,74112.00
2018-05-25T08:15:32.890Z,73184.00
2018-05-25T08:16:32.885Z,76448.00
2018-05-25T08:17:32.880Z,82080.00
2018-05-25T08:18:32.877Z,81216.00
2018-05-25T08:19:32.873Z,77984.00
2018-05-25T08:20:32.869Z,74784.00
2018-05-25T08:21:32.873Z,75840.00
2018-05-25T08:22:32.861Z,78560.00
2018-05-25T08:23:32.862Z,81984.00
2018-05-25T08:24:32.854Z,85120.00
2018-05-25T08:25:32.854Z,82784.00
2018-05-25T08:26:32.852Z,81024.00
2018-05-25T08:27:32.848Z,84032.00
2018-05-25T08:28:32.846Z,85920.00
2018-05-25T08:29:32.842Z,81440.00
2018-05-25T08:30:32.842Z,80352.00
2018-05-25T08:31:32.837Z,85568.00
2018-05-25T08:32:32.839Z,88000.00
2018-05-25T08:33:32.889Z,84128.00
2018-05-25T08:34:32.833Z,79520.00
2018-05-25T08:35:32.836Z,79616.00
2018-05-25T08:36:32.837Z,80864.00
2018-05-25T08:37:32.837Z,84608.00
2018-05-25T08:38:32.826Z,88928.00
2018-05-25T08:39:32.827Z,92768.00
2018-05-25T08:40:32.833Z,90368.00
2018-05-25T08:41:32.822Z,88864.00
2018-05-25T08:42:32.823Z,86336.00
2018-05-25T08:43:32.822Z,84704.00
2018-05-25T08:44:32.822Z,89216.00
2018-05-25T08:45:32.819Z,89024.00
2018-05-25T08:46:32.820Z,89248.00
2018-05-25T08:47:32.817Z,83488.00
2018-05-25T08:48:32.819Z,79808.00
2018-05-25T08:49:32.860Z,85408.00
2018-05-25T08:50:32.818Z,89440.00
2018-05-25T08:51:32.818Z,86848.00
2018-05-25T08:52:32.818Z,81280.00
2018-05-25T08:53:32.818Z,77856.00
2018-05-25T08:54:32.817Z,85824.00
2018-05-25T08:55:32.817Z,98112.00
2018-05-25T08:56:32.818Z,102592.00
2018-05-25T08:57:32.813Z,100480.00
2018-05-25T08:58:32.813Z,90880.00
2018-05-25T08:59:32.813Z,89184.00
2018-05-25T09:00:32.819Z,88416.00
2018-05-25T09:01:32.812Z,91264.00
2018-05-25T09:02:32.813Z,90208.00
2018-05-25T09:03:32.814Z,90592.00
2018-05-25T09:04:32.824Z,93664.00
2018-05-25T09:05:32.813Z,94528.00
2018-05-25T09:06:32.815Z,96512.00
2018-05-25T09:07:32.813Z,90944.00
2018-05-25T09:08:32.818Z,88704.00
2018-05-25T09:09:32.821Z,86176.00
2018-05-25T09:10:32.818Z,85824.00
2018-05-25T09:11:32.818Z,5412.00
2018-05-25T09:12:32.821Z,4668.00
2018-05-25T09:13:32.818Z,4696.00
2018-05-25T09:14:32.823Z,4720.00
2018-05-25T09:15:32.826Z,4720.00
2018-05-25T09:16:32.818Z,4740.00
2018-05-25T09:17:32.818Z,4756.00
2018-05-25T09:18:32.818Z,4776.00
2018-05-25T09:19:32.822Z,4788.00
2018-05-25T09:20:32.819Z,4856.00
2018-05-25T09:21:32.818Z,4904.00
2018-05-25T09:22:32.818Z,4920.00
2018-05-25T09:23:32.814Z,4912.00
2018-05-25T09:24:32.814Z,4908.00
2018-05-25T09:25:32.814Z,4928.00
2018-05-25T09:26:32.813Z,4944.00
2018-05-25T09:27:32.810Z,4976.00
2018-05-25T09:28:32.811Z,4984.00
2018-05-25T09:29:32.807Z,5000.00
2018-05-25T09:30:32.807Z,5036.00
2018-05-25T09:31:32.804Z,5052.00
2018-05-25T09:32:32.808Z,5072.00
2018-05-25T09:33:32.805Z,5092.00
2018-05-25T09:34:32.800Z,5144.00
2018-05-25T09:35:32.799Z,5144.00
2018-05-25T09:36:32.796Z,5180.00
2018-05-25T09:37:32.794Z,5212.00
2018-05-25T09:38:32.792Z,5252.00
2018-05-25T09:39:32.789Z,5276.00
2018-05-25T09:40:32.787Z,5300.00
2018-05-25T09:41:32.787Z,5308.00
2018-05-25T09:42:32.930Z,5316.00
2018-05-25T09:43:32.957Z,5372.00
2018-05-25T09:44:32.777Z,5456.00
2018-05-25T09:45:32.774Z,5564.00
2018-05-25T09:46:32.772Z,5468.00
2018-05-25T09:47:32.771Z,5512.00
2018-05-25T09:48:32.774Z,5492.00
2018-05-25T09:49:32.765Z,5432.00
2018-05-25T09:50:32.768Z,5468.00
2018-05-25T09:51:32.767Z,5608.00
2018-05-25T09:52:32.753Z,5700.00
2018-05-25T09:53:32.752Z,5916.00
2018-05-25T09:54:32.749Z,6008.00
2018-05-25T09:55:32.744Z,6168.00
2018-05-25T09:56:32.742Z,6212.00
2018-05-25T09:57:32.745Z,6116.00
2018-05-25T09:58:32.738Z,6136.00
2018-05-25T09:59:32.733Z,6256.00
2018-05-25T10:00:32.728Z,6704.00
2018-05-25T10:01:32.728Z,6444.00
2018-05-25T10:02:32.720Z,6484.00
2018-05-25T10:03:32.721Z,6384.00
2018-05-25T10:04:32.713Z,6340.00
2018-05-25T10:05:32.710Z,6372.00
2018-05-25T10:06:32.707Z,6720.00
2018-05-25T10:07:32.705Z,6900.00
2018-05-25T10:08:32.756Z,3796.00
2018-05-25T10:09:32.696Z,6180.00
2018-05-25T10:10:32.691Z,7108.00
2018-05-25T10:11:32.688Z,7340.00
2018-05-25T10:12:32.684Z,6432.00
2018-05-25T10:13:32.682Z,6384.00
2018-05-25T10:14:32.675Z,6704.00
2018-05-25T10:15:32.672Z,4108.00
2018-05-25T10:16:32.669Z,6864.00
2018-05-25T10:17:32.665Z,7204.00
2018-05-25T10:18:32.660Z,7176.00
2018-05-25T10:19:32.656Z,7068.00
2018-05-25T10:20:32.651Z,7060.00
2018-05-25T10:21:32.649Z,7340.00
2018-05-25T10:22:32.642Z,7504.00
2018-05-25T10:23:32.640Z,7040.00
2018-05-25T10:24:32.637Z,6880.00
2018-05-25T10:25:32.631Z,6816.00
2018-05-25T10:26:32.631Z,6868.00
2018-05-25T10:27:32.624Z,4876.00
2018-05-25T10:28:32.628Z,4144.00
2018-05-25T10:29:32.613Z,7616.00
2018-05-25T10:30:32.612Z,8248.00
2018-05-25T10:31:32.607Z,6324.00
2018-05-25T10:32:32.606Z,4836.00
2018-05-25T10:33:32.598Z,4816.00
2018-05-25T10:34:32.598Z,5280.00
2018-05-25T10:35:32.590Z,5176.00
2018-05-25T10:36:32.588Z,4704.00
2018-05-25T10:37:32.580Z,7588.00
2018-05-25T10:38:32.583Z,7832.00
2018-05-25T10:39:32.583Z,8068.00
2018-05-25T10:40:32.567Z,7668.00
2018-05-25T10:41:32.569Z,7648.00
2018-05-25T10:42:32.557Z,7408.00
2018-05-25T10:43:32.554Z,4632.00
2018-05-25T10:44:32.554Z,4640.00
2018-05-25T10:45:32.572Z,4844.00
2018-05-25T10:46:32.540Z,5672.00
2018-05-25T10:47:32.537Z,6112.00
2018-05-25T10:48:32.533Z,5372.00
2018-05-25T10:49:32.527Z,4336.00
2018-05-25T10:50:32.523Z,3860.00
2018-05-25T10:51:32.518Z,7024.00
2018-05-25T10:52:32.514Z,7676.00
2018-05-25T10:53:32.507Z,8360.00
2018-05-25T10:54:32.504Z,8332.00
2018-05-25T10:55:32.507Z,7860.00
2018-05-25T10:56:32.494Z,4828.00
2018-05-25T10:57:32.488Z,4564.00
2018-05-25T10:58:32.484Z,4704.00
2018-05-25T10:59:32.480Z,4752.00
2018-05-25T11:00:32.472Z,4116.00
2018-05-25T11:01:32.474Z,4604.00
2018-05-25T11:02:32.468Z,7720.00
2018-05-25T11:03:32.459Z,7860.00
2018-05-25T11:04:32.456Z,7340.00
2018-05-25T11:05:32.455Z,7160.00
2018-05-25T11:06:32.445Z,7124.00
2018-05-25T11:07:32.440Z,7208.00
2018-05-25T11:08:32.435Z,7052.00
2018-05-25T11:09:32.431Z,7404.00
2018-05-25T11:10:32.432Z,7752.00
2018-05-25T11:11:32.422Z,5992.00
2018-05-25T11:12:32.415Z,6096.00
2018-05-25T11:13:32.413Z,6160.00
2018-05-25T11:14:32.407Z,9840.00
2018-05-25T11:15:32.402Z,6796.00
2018-05-25T11:16:32.397Z,10076.00
2018-05-25T11:17:32.396Z,9992.00
2018-05-25T11:18:32.387Z,10016.00
2018-05-25T11:19:32.381Z,9572.00
2018-05-25T11:20:32.378Z,8608.00
2018-05-25T11:21:32.371Z,8116.00
2018-05-25T11:22:32.371Z,8052.00
2018-05-25T11:23:32.363Z,8000.00
2018-05-25T11:24:32.358Z,7900.00
2018-05-25T11:25:32.352Z,7652.00
2018-05-25T11:26:32.353Z,8136.00
2018-05-25T11:27:32.348Z,8440.00
2018-05-25T11:28:32.347Z,8568.00
2018-05-25T11:29:32.331Z,6464.00
2018-05-25T11:30:32.333Z,6668.00
2018-05-25T11:31:32.332Z,9664.00
2018-05-25T11:32:32.319Z,10340.00
2018-05-25T11:33:32.317Z,9932.00
2018-05-25T11:34:32.309Z,9188.00
2018-05-25T11:35:32.309Z,9396.00
2018-05-25T11:36:32.300Z,10376.00
2018-05-25T11:37:32.295Z,10912.00
2018-05-25T11:38:32.292Z,10908.00
2018-05-25T11:39:32.287Z,10088.00
2018-05-25T11:40:32.298Z,7676.00
2018-05-25T11:41:32.279Z,8048.00
2018-05-25T11:42:32.273Z,8832.00
2018-05-25T11:43:32.269Z,7720.00
2018-05-25T11:44:32.268Z,6100.00
2018-05-25T11:45:32.258Z,8304.00
2018-05-25T11:46:32.258Z,9532.00
2018-05-25T11:47:32.251Z,12828.00
2018-05-25T11:48:32.245Z,11980.00
2018-05-25T11:49:32.240Z,12296.00
2018-05-25T11:50:32.236Z,21216.00
2018-05-25T11:51:32.232Z,22400.00
2018-05-25T11:52:32.227Z,20864.00
2018-05-25T11:53:32.225Z,21408.00
2018-05-25T11:54:32.231Z,18880.00
2018-05-25T11:55:32.213Z,24480.00
2018-05-25T11:56:32.212Z,25664.00
2018-05-25T11:57:32.206Z,66496.00
2018-05-25T11:58:32.200Z,96320.00
2018-05-25T11:59:32.201Z,99584.00
2018-05-25T12:00:32.197Z,103872.00
2018-05-25T12:01:32.191Z,96064.00
2018-05-25T12:02:32.199Z,101888.00
2018-05-25T12:03:32.186Z,101856.00
2018-05-25T12:04:32.182Z,101120.00
2018-05-25T12:05:32.181Z,100608.00
2018-05-25T12:06:32.227Z,96640.00
2018-05-25T12:07:32.177Z,98432.00
2018-05-25T12:08:32.175Z,102656.00
2018-05-25T12:09:32.173Z,104992.00
2018-05-25T12:10:32.171Z,60448.00
2018-05-25T12:11:32.173Z,19776.00
2018-05-25T12:12:32.168Z,88544.00
2018-05-25T12:13:32.167Z,103808.00
2018-05-25T12:14:32.174Z,103392.00
2018-05-25T12:15:32.168Z,97024.00
2018-05-25T12:16:32.185Z,96480.00
2018-05-25T12:17:32.166Z,98560.00
2018-05-25T12:18:32.173Z,22976.00
2018-05-25T12:19:32.162Z,10696.00